Time;durP1;ratioP1;P1;durP2;ratioP2;P2;SDS_P1;SDS_P2;PMS_P1;PMS_P2;Temp;Humidity;BMP_temperature;BMP_pressure;BME280_temperature;BME280_humidity;BME280_pressure;Samples;Min_cycle;Max_cycle;Signal;HPM_P1;HPM_P2
2020/12/08 00:00:11;;;;;;;80.63;42.10;;;;;;;;;;5023592;28;20034;-82
2020/12/08 00:02:37;;;;;;;78.27;43.93;;;;;;;;;;5025561;28;20033;-82
2020/12/08 00:05:04;;;;;;;77.63;41.27;;;;;;;;;;5010691;28;20025;-82
2020/12/08 00:07:30;;;;;;;77.73;41.90;;;;;;;;;;5031473;28;20049;-83
2020/12/08 00:09:56;;;;;;;76.73;41.83;;;;;;;;;;5030172;28;20366;-82
2020/12/08 00:12:23;;;;;;;76.87;45.30;;;;;;;;;;5031756;28;20034;-82
2020/12/08 00:14:49;;;;;;;70.77;38.73;;;;;;;;;;5027548;28;20060;-82
2020/12/08 00:17:15;;;;;;;74.00;39.37;;;;;;;;;;5029505;28;20030;-82
2020/12/08 00:19:41;;;;;;;68.33;39.00;;;;;;;;;;5018577;28;20038;-84
2020/12/08 00:22:07;;;;;;;72.43;36.83;;;;;;;;;;5030525;28;20037;-83
2020/12/08 00:24:33;;;;;;;66.10;38.07;;;;;;;;;;5015565;28;20057;-83
2020/12/08 00:26:59;;;;;;;69.47;37.10;;;;;;;;;;5020000;28;20029;-84
2020/12/08 00:29:25;;;;;;;67.53;36.83;;;;;;;;;;5015312;28;20124;-82
2020/12/08 00:31:51;;;;;;;68.00;37.57;;;;;;;;;;5029823;28;20137;-82
2020/12/08 00:34:17;;;;;;;67.53;36.87;;;;;;;;;;5013661;28;20041;-83
2020/12/08 00:36:43;;;;;;;69.80;38.27;;;;;;;;;;5034748;28;20025;-83
2020/12/08 00:39:09;;;;;;;73.73;40.40;;;;;;;;;;5031910;28;20056;-82
2020/12/08 00:41:35;;;;;;;69.70;37.33;;;;;;;;;;5025829;28;20029;-82
2020/12/08 00:44:01;;;;;;;66.50;36.83;;;;;;;;;;5009946;28;20036;-82
2020/12/08 00:46:27;;;;;;;63.00;34.80;;;;;;;;;;5028344;28;20030;-82
2020/12/08 00:48:53;;;;;;;62.23;35.90;;;;;;;;;;5030572;28;20477;-82
2020/12/08 00:51:20;;;;;;;57.17;32.83;;;;;;;;;;5006854;28;20053;-82
2020/12/08 00:53:46;;;;;;;58.57;31.40;;;;;;;;;;5024323;28;20484;-83
2020/12/08 00:56:13;;;;;;;64.20;33.47;;;;;;;;;;5026784;28;20030;-83
2020/12/08 00:58:39;;;;;;;64.33;35.27;;;;;;;;;;5029297;28;20065;-83
2020/12/08 01:01:05;;;;;;;70.33;36.40;;;;;;;;;;5010070;28;20034;-83
2020/12/08 01:03:33;;;;;;;70.30;39.40;;;;;;;;;;5028902;28;20033;-83
2020/12/08 01:05:59;;;;;;;69.63;39.30;;;;;;;;;;5031300;28;20040;-83
2020/12/08 01:08:25;;;;;;;56.97;29.00;;;;;;;;;;5030605;28;20034;-82
2020/12/08 01:10:53;;;;;;;65.60;36.17;;;;;;;;;;5033649;28;20052;-82
2020/12/08 01:13:19;;;;;;;63.47;35.30;;;;;;;;;;5034232;28;20041;-84
2020/12/08 01:15:45;;;;;;;61.60;33.20;;;;;;;;;;5034890;28;20010;-83
2020/12/08 01:18:11;;;;;;;60.43;34.93;;;;;;;;;;5034480;28;20034;-83
2020/12/08 01:20:37;;;;;;;57.53;33.53;;;;;;;;;;5035158;28;20037;-84
2020/12/08 01:23:03;;;;;;;48.57;27.40;;;;;;;;;;5035529;28;20041;-84
2020/12/08 01:25:29;;;;;;;53.03;30.23;;;;;;;;;;5015806;28;20084;-83
2020/12/08 01:27:55;;;;;;;53.83;33.30;;;;;;;;;;5029502;28;20033;-82
2020/12/08 01:30:21;;;;;;;50.33;29.43;;;;;;;;;;5011439;28;20093;-82
2020/12/08 01:32:47;;;;;;;48.73;29.07;;;;;;;;;;5029633;28;20040;-82
2020/12/08 01:35:13;;;;;;;47.80;28.83;;;;;;;;;;5048693;28;20030;-83
2020/12/08 01:37:39;;;;;;;50.67;29.40;;;;;;;;;;5018532;28;20036;-83
2020/12/08 01:40:06;;;;;;;51.90;27.80;;;;;;;;;;5023324;28;20060;-83
2020/12/08 01:42:32;;;;;;;45.93;24.03;;;;;;;;;;5052847;28;20032;-84
2020/12/08 01:44:58;;;;;;;47.63;26.67;;;;;;;;;;5037497;28;20053;-84
2020/12/08 01:47:24;;;;;;;53.00;29.97;;;;;;;;;;5053503;28;20052;-83
2020/12/08 01:49:50;;;;;;;54.67;29.20;;;;;;;;;;5014721;28;20052;-83
2020/12/08 01:52:16;;;;;;;52.43;28.07;;;;;;;;;;5014064;28;20029;-83
2020/12/08 01:54:45;;;;;;;52.67;30.53;;;;;;;;;;5035161;28;20013;-84
2020/12/08 01:57:11;;;;;;;57.10;32.83;;;;;;;;;;5041013;28;20021;-84
2020/12/08 01:59:37;;;;;;;55.87;31.63;;;;;;;;;;5038353;28;20064;-82
2020/12/08 02:02:04;;;;;;;55.70;31.63;;;;;;;;;;5014148;28;20060;-82
2020/12/08 02:04:30;;;;;;;57.10;31.80;;;;;;;;;;5028907;28;20025;-82
2020/12/08 02:06:56;;;;;;;58.53;32.60;;;;;;;;;;5030451;28;20031;-82
2020/12/08 02:09:22;;;;;;;60.57;33.13;;;;;;;;;;5032811;28;20053;-83
2020/12/08 02:11:49;;;;;;;59.63;31.57;;;;;;;;;;5021364;28;20124;-83
2020/12/08 02:14:15;;;;;;;61.30;32.03;;;;;;;;;;5041374;28;20118;-83
2020/12/08 02:16:41;;;;;;;63.93;34.77;;;;;;;;;;5031045;28;20555;-84
2020/12/08 02:19:07;;;;;;;67.00;36.53;;;;;;;;;;5030569;28;20069;-83
2020/12/08 02:21:34;;;;;;;64.03;33.70;;;;;;;;;;5031701;28;20044;-83
2020/12/08 02:24:01;;;;;;;66.03;35.07;;;;;;;;;;5017371;28;20071;-82
2020/12/08 02:26:27;;;;;;;66.77;37.40;;;;;;;;;;5036909;28;20473;-82
2020/12/08 02:28:54;;;;;;;62.47;33.87;;;;;;;;;;5039203;28;20040;-83
2020/12/08 02:31:20;;;;;;;63.07;31.80;;;;;;;;;;5053921;28;20049;-82
2020/12/08 02:33:46;;;;;;;64.37;35.17;;;;;;;;;;5016581;28;20057;-82
2020/12/08 02:36:12;;;;;;;63.03;36.10;;;;;;;;;;5053139;28;20034;-82
2020/12/08 02:38:38;;;;;;;64.93;34.97;;;;;;;;;;5053676;28;20038;-83
2020/12/08 02:41:04;;;;;;;63.60;32.80;;;;;;;;;;5019132;28;20049;-81
2020/12/08 02:43:31;;;;;;;64.27;33.63;;;;;;;;;;5030630;28;20025;-83
2020/12/08 02:45:58;;;;;;;57.40;33.77;;;;;;;;;;5031666;28;20033;-82
2020/12/08 02:48:24;;;;;;;55.40;29.33;;;;;;;;;;5032187;28;20093;-83
2020/12/08 02:50:50;;;;;;;57.13;32.70;;;;;;;;;;5036055;28;20033;-83
2020/12/08 02:53:16;;;;;;;58.00;32.50;;;;;;;;;;5038014;28;20094;-83
2020/12/08 02:55:45;;;;;;;57.43;32.17;;;;;;;;;;5039295;28;20026;-83
2020/12/08 02:58:11;;;;;;;62.60;34.60;;;;;;;;;;5053612;28;20029;-83
2020/12/08 03:00:37;;;;;;;62.43;32.97;;;;;;;;;;5023661;28;20067;-84
2020/12/08 03:03:03;;;;;;;59.00;33.13;;;;;;;;;;5024102;28;20021;-84
2020/12/08 03:05:29;;;;;;;66.00;34.70;;;;;;;;;;5058855;28;20033;-84
2020/12/08 03:07:55;;;;;;;60.00;33.63;;;;;;;;;;5041287;28;20021;-84
2020/12/08 03:10:21;;;;;;;63.50;33.13;;;;;;;;;;5024443;28;20030;-83
2020/12/08 03:12:47;;;;;;;63.13;34.77;;;;;;;;;;5057646;28;20032;-84
2020/12/08 03:15:13;;;;;;;65.77;35.13;;;;;;;;;;5039967;28;20033;-83
2020/12/08 03:17:39;;;;;;;66.00;35.57;;;;;;;;;;5036963;28;20089;-82
2020/12/08 03:20:05;;;;;;;60.03;33.03;;;;;;;;;;5011883;28;20056;-82
2020/12/08 03:22:31;;;;;;;62.87;35.63;;;;;;;;;;5046470;28;20081;-83
2020/12/08 03:24:57;;;;;;;62.77;34.80;;;;;;;;;;5013985;28;20040;-84
2020/12/08 03:27:23;;;;;;;64.43;34.53;;;;;;;;;;5034545;28;20128;-83
2020/12/08 03:29:49;;;;;;;58.00;32.80;;;;;;;;;;5052535;28;20041;-84
2020/12/08 03:32:15;;;;;;;61.37;34.37;;;;;;;;;;5021288;28;20050;-83
2020/12/08 03:34:41;;;;;;;62.03;35.17;;;;;;;;;;5024974;28;20025;-85
2020/12/08 03:37:07;;;;;;;58.97;32.47;;;;;;;;;;5036823;28;20029;-82
2020/12/08 03:39:33;;;;;;;56.60;32.03;;;;;;;;;;5033848;28;20104;-82
2020/12/08 03:42:03;;;;;;;60.67;32.33;;;;;;;;;;5037137;28;20037;-84
2020/12/08 03:44:29;;;;;;;65.03;36.10;;;;;;;;;;5038160;28;20053;-83
2020/12/08 03:46:58;;;;;;;58.47;32.27;;;;;;;;;;5039641;28;20042;-84
2020/12/08 03:49:26;;;;;;;56.93;31.60;;;;;;;;;;5057975;28;20030;-83
2020/12/08 03:51:53;;;;;;;62.30;33.33;;;;;;;;;;5039531;28;20008;-83
2020/12/08 03:54:19;;;;;;;56.17;31.07;;;;;;;;;;5035979;28;20057;-83
2020/12/08 03:56:46;;;;;;;62.63;33.30;;;;;;;;;;5032429;28;20034;-83
2020/12/08 03:59:21;;;;;;;63.30;33.30;;;;;;;;;;5052258;28;20061;-83
2020/12/08 04:01:51;;;;;;;57.90;32.47;;;;;;;;;;5035977;28;20029;-83
2020/12/08 04:04:18;;;;;;;56.70;32.07;;;;;;;;;;5052069;28;20030;-83
2020/12/08 04:06:44;;;;;;;63.67;33.73;;;;;;;;;;5036451;28;20032;-84
2020/12/08 04:09:10;;;;;;;64.20;33.30;;;;;;;;;;5025949;28;20034;-83
2020/12/08 04:11:36;;;;;;;60.40;32.17;;;;;;;;;;5010288;28;20056;-84
2020/12/08 04:14:03;;;;;;;56.60;32.03;;;;;;;;;;5027222;28;20032;-83
2020/12/08 04:16:30;;;;;;;58.70;31.20;;;;;;;;;;5028510;28;20130;-84
2020/12/08 04:18:56;;;;;;;56.40;30.67;;;;;;;;;;5014590;28;20040;-83
2020/12/08 04:21:23;;;;;;;52.20;30.97;;;;;;;;;;5035335;28;20038;-84
2020/12/08 04:23:49;;;;;;;56.40;29.07;;;;;;;;;;5053385;28;20033;-84
2020/12/08 04:26:15;;;;;;;54.97;31.20;;;;;;;;;;5017946;28;20093;-83
2020/12/08 04:28:43;;;;;;;58.20;32.57;;;;;;;;;;5049330;28;20026;-85
2020/12/08 04:31:13;;;;;;;53.77;30.80;;;;;;;;;;5052546;28;20041;-83
2020/12/08 04:33:39;;;;;;;57.67;32.47;;;;;;;;;;5034461;28;20033;-83
2020/12/08 04:36:09;;;;;;;53.13;29.60;;;;;;;;;;5048709;28;20033;-84
2020/12/08 04:38:35;;;;;;;55.37;30.43;;;;;;;;;;5034114;28;20030;-84
2020/12/08 04:41:01;;;;;;;52.07;29.53;;;;;;;;;;5037437;28;20033;-84
2020/12/08 04:43:27;;;;;;;59.17;32.57;;;;;;;;;;5009279;28;20045;-83
2020/12/08 04:45:54;;;;;;;48.67;24.97;;;;;;;;;;5025467;28;20041;-83
2020/12/08 04:48:20;;;;;;;49.63;28.23;;;;;;;;;;5026623;28;20061;-84
2020/12/08 04:50:46;;;;;;;51.40;28.70;;;;;;;;;;5028143;28;20038;-83
2020/12/08 04:53:12;;;;;;;53.57;28.53;;;;;;;;;;5045416;28;20030;-83
2020/12/08 04:55:38;;;;;;;54.63;29.70;;;;;;;;;;5027493;28;20037;-83
2020/12/08 04:58:04;;;;;;;55.80;31.53;;;;;;;;;;5026812;28;20338;-83
2020/12/08 05:00:39;;;;;;;54.03;29.13;;;;;;;;;;5026026;28;20179;-83
2020/12/08 05:03:05;;;;;;;48.67;23.20;;;;;;;;;;5027330;28;20025;-84
2020/12/08 05:05:37;;;;;;;55.67;32.30;;;;;;;;;;5011301;28;20032;-83
2020/12/08 05:08:13;;;;;;;54.40;30.93;;;;;;;;;;5025316;28;20029;-83
2020/12/08 05:10:40;;;;;;;57.73;31.83;;;;;;;;;;5029811;28;20466;-83
2020/12/08 05:13:06;;;;;;;55.60;28.17;;;;;;;;;;5051855;28;20026;-84
2020/12/08 05:15:32;;;;;;;56.23;31.87;;;;;;;;;;5038504;28;20021;-84
2020/12/08 05:18:05;;;;;;;58.53;31.97;;;;;;;;;;5037077;28;20034;-83
2020/12/08 05:20:31;;;;;;;59.33;32.23;;;;;;;;;;5027598;28;20045;-83
2020/12/08 05:22:58;;;;;;;58.50;30.83;;;;;;;;;;5044544;28;20026;-83
2020/12/08 05:25:26;;;;;;;62.03;33.60;;;;;;;;;;5026132;28;20041;-83
2020/12/08 05:27:52;;;;;;;60.10;33.57;;;;;;;;;;5027198;28;20041;-83
2020/12/08 05:30:19;;;;;;;53.73;32.23;;;;;;;;;;5028749;28;20424;-82
2020/12/08 05:32:45;;;;;;;53.80;29.37;;;;;;;;;;5033217;28;20044;-83
2020/12/08 05:35:12;;;;;;;53.47;30.07;;;;;;;;;;5036374;28;20032;-83
2020/12/08 05:37:43;;;;;;;52.10;27.53;;;;;;;;;;5037934;28;20029;-83
2020/12/08 05:40:13;;;;;;;56.87;29.30;;;;;;;;;;5056305;28;20029;-84
2020/12/08 05:42:39;;;;;;;54.97;31.43;;;;;;;;;;5058463;28;20060;-83
2020/12/08 05:45:06;;;;;;;57.70;31.30;;;;;;;;;;5025778;28;20029;-85
2020/12/08 05:47:41;;;;;;;58.67;33.33;;;;;;;;;;5059830;28;20055;-84
2020/12/08 05:50:07;;;;;;;59.47;33.40;;;;;;;;;;5059135;28;20465;-84
2020/12/08 05:52:34;;;;;;;52.50;30.40;;;;;;;;;;5058452;28;20037;-85
2020/12/08 05:55:10;;;;;;;54.83;29.03;;;;;;;;;;5050756;28;20025;-84
2020/12/08 05:57:36;;;;;;;53.73;29.33;;;;;;;;;;5037546;28;20064;-83
2020/12/08 06:00:03;;;;;;;55.70;28.57;;;;;;;;;;5037949;28;20056;-84
2020/12/08 06:02:31;;;;;;;45.47;24.73;;;;;;;;;;5054992;28;20029;-83
2020/12/08 06:04:57;;;;;;;49.00;28.27;;;;;;;;;;5038343;28;20530;-84
2020/12/08 06:07:27;;;;;;;50.47;30.23;;;;;;;;;;5034624;28;20040;-83
2020/12/08 06:10:03;;;;;;;52.33;29.90;;;;;;;;;;5015131;28;20033;-82
2020/12/08 06:12:29;;;;;;;53.57;32.00;;;;;;;;;;5048182;28;20025;-82
2020/12/08 06:14:55;;;;;;;47.07;28.13;;;;;;;;;;5014919;28;20033;-83
2020/12/08 06:17:21;;;;;;;49.87;29.73;;;;;;;;;;5032575;28;20029;-83
2020/12/08 06:19:47;;;;;;;56.53;31.93;;;;;;;;;;5051037;28;20034;-83
2020/12/08 06:22:15;;;;;;;52.30;30.23;;;;;;;;;;5019882;28;20033;-84
2020/12/08 06:24:54;;;;;;;52.07;30.80;;;;;;;;;;5038115;28;20104;-83
2020/12/08 06:27:21;;;;;;;46.07;26.40;;;;;;;;;;5039219;28;20053;-84
2020/12/08 06:29:51;;;;;;;56.60;30.47;;;;;;;;;;5050429;28;20052;-83
2020/12/08 06:32:24;;;;;;;48.60;28.30;;;;;;;;;;5047984;28;20045;-83
2020/12/08 06:34:50;;;;;;;48.77;29.07;;;;;;;;;;5030372;28;20025;-83
2020/12/08 06:37:16;;;;;;;45.90;27.10;;;;;;;;;;5030381;28;20036;-83
2020/12/08 06:39:42;;;;;;;51.27;28.20;;;;;;;;;;5013955;28;20037;-83
2020/12/08 06:42:12;;;;;;;46.03;27.40;;;;;;;;;;5030914;28;20030;-83
2020/12/08 06:44:38;;;;;;;46.03;28.10;;;;;;;;;;5032853;28;20026;-84
2020/12/08 06:47:04;;;;;;;42.13;27.20;;;;;;;;;;5052776;28;20033;-84
2020/12/08 06:49:38;;;;;;;43.20;24.40;;;;;;;;;;5020803;28;20018;-83
2020/12/08 06:52:04;;;;;;;50.70;28.65;;;;;;;;;;5022862;28;20029;-85
2020/12/08 06:54:30;;;;;;;46.73;24.50;;;;;;;;;;5023045;28;20029;-85
2020/12/08 06:57:05;;;;;;;44.30;23.87;;;;;;;;;;5053855;28;20021;-84
2020/12/08 06:59:31;;;;;;;37.53;23.50;;;;;;;;;;5035177;28;20029;-84
2020/12/08 07:01:58;;;;;;;36.47;21.80;;;;;;;;;;5035725;28;20056;-82
2020/12/08 07:04:25;;;;;;;42.13;23.47;;;;;;;;;;5032534;28;20053;-83
2020/12/08 07:06:51;;;;;;;43.50;25.90;;;;;;;;;;5029374;28;20101;-82
2020/12/08 07:09:18;;;;;;;39.47;23.97;;;;;;;;;;5012823;28;20037;-82
2020/12/08 07:11:44;;;;;;;41.13;24.37;;;;;;;;;;5029867;28;20053;-82
2020/12/08 07:14:10;;;;;;;43.43;24.87;;;;;;;;;;5014044;28;20095;-82
2020/12/08 07:16:36;;;;;;;37.80;22.30;;;;;;;;;;5029484;28;20030;-82
2020/12/08 07:19:06;;;;;;;39.87;22.77;;;;;;;;;;5014515;28;20389;-83
2020/12/08 07:21:32;;;;;;;41.07;26.50;;;;;;;;;;5045709;28;20038;-82
2020/12/08 07:23:58;;;;;;;37.47;21.27;;;;;;;;;;5029350;28;20072;-82
2020/12/08 07:26:29;;;;;;;38.37;24.73;;;;;;;;;;5047740;28;20040;-82
2020/12/08 07:28:56;;;;;;;38.07;23.63;;;;;;;;;;5047880;28;20029;-82
2020/12/08 07:31:27;;;;;;;36.73;23.50;;;;;;;;;;5051396;28;20129;-82
2020/12/08 07:33:53;;;;;;;37.97;23.23;;;;;;;;;;5034969;28;20025;-83
2020/12/08 07:36:23;;;;;;;41.27;24.40;;;;;;;;;;5035810;28;20055;-83
2020/12/08 07:38:51;;;;;;;36.83;23.27;;;;;;;;;;5034264;28;20033;-82
2020/12/08 07:41:18;;;;;;;36.57;22.97;;;;;;;;;;5033170;28;20025;-84
2020/12/08 07:43:44;;;;;;;39.17;24.03;;;;;;;;;;5033993;28;20358;-83
2020/12/08 07:46:10;;;;;;;41.80;25.77;;;;;;;;;;5018144;28;20092;-82
2020/12/08 07:48:36;;;;;;;37.90;23.03;;;;;;;;;;5017533;28;20179;-83
2020/12/08 07:51:02;;;;;;;38.90;23.77;;;;;;;;;;5034793;28;20044;-83
2020/12/08 07:53:38;;;;;;;40.07;24.87;;;;;;;;;;5033384;28;20182;-83
2020/12/08 07:56:04;;;;;;;40.30;25.27;;;;;;;;;;5019130;28;20036;-83
2020/12/08 07:58:30;;;;;;;39.33;23.73;;;;;;;;;;5018938;28;20045;-83
2020/12/08 08:00:57;;;;;;;40.03;25.33;;;;;;;;;;5028536;28;20175;-82
2020/12/08 08:03:23;;;;;;;42.17;24.30;;;;;;;;;;5012152;28;20052;-83
2020/12/08 08:05:50;;;;;;;40.67;25.63;;;;;;;;;;5028902;28;20029;-83
2020/12/08 08:08:16;;;;;;;43.07;25.07;;;;;;;;;;5014568;28;20033;-83
2020/12/08 08:10:42;;;;;;;42.33;25.03;;;;;;;;;;5018418;28;20030;-83
2020/12/08 08:13:08;;;;;;;37.17;22.13;;;;;;;;;;5034172;28;20021;-83
2020/12/08 08:15:34;;;;;;;37.00;23.37;;;;;;;;;;5035117;28;20053;-83
2020/12/08 08:18:00;;;;;;;37.33;20.97;;;;;;;;;;5035380;28;20041;-83
2020/12/08 08:20:26;;;;;;;36.37;21.93;;;;;;;;;;5020077;28;20045;-84
2020/12/08 08:22:52;;;;;;;32.03;20.20;;;;;;;;;;5019165;28;20029;-82
2020/12/08 08:25:18;;;;;;;37.10;21.30;;;;;;;;;;5015968;28;20099;-83
2020/12/08 08:27:44;;;;;;;39.27;21.80;;;;;;;;;;5018451;28;20104;-82
2020/12/08 08:30:10;;;;;;;39.27;22.27;;;;;;;;;;5015470;28;20112;-82
2020/12/08 08:32:36;;;;;;;36.20;21.63;;;;;;;;;;5046261;28;20049;-83
2020/12/08 08:35:02;;;;;;;36.40;21.80;;;;;;;;;;5030420;28;20040;-83
2020/12/08 08:37:28;;;;;;;32.70;21.63;;;;;;;;;;5010148;28;20048;-83
2020/12/08 08:39:54;;;;;;;35.93;21.57;;;;;;;;;;5010207;28;20101;-83
2020/12/08 08:42:21;;;;;;;38.80;24.03;;;;;;;;;;5027487;28;20072;-82
2020/12/08 08:44:47;;;;;;;35.73;21.90;;;;;;;;;;5029127;28;20030;-83
2020/12/08 08:47:13;;;;;;;30.90;19.87;;;;;;;;;;5049499;28;20032;-84
2020/12/08 08:49:39;;;;;;;40.73;23.03;;;;;;;;;;5016681;28;20042;-83
2020/12/08 08:52:05;;;;;;;37.07;20.23;;;;;;;;;;5010870;28;20037;-82
2020/12/08 08:54:31;;;;;;;30.93;20.00;;;;;;;;;;5029568;28;20037;-83
2020/12/08 08:56:57;;;;;;;31.80;21.03;;;;;;;;;;5015749;28;20060;-83
2020/12/08 08:59:23;;;;;;;36.77;20.60;;;;;;;;;;5031121;28;20037;-83
2020/12/08 09:01:50;;;;;;;35.23;20.67;;;;;;;;;;5031042;28;20036;-84
2020/12/08 09:04:16;;;;;;;35.17;20.67;;;;;;;;;;5051390;28;20029;-83
2020/12/08 09:06:41;;;;;;;30.07;15.93;;;;;;;;;;5027043;28;20036;-83
2020/12/08 09:09:08;;;;;;;26.17;17.10;;;;;;;;;;5014059;28;20083;-83
2020/12/08 09:11:34;;;;;;;27.80;17.20;;;;;;;;;;5050998;28;20037;-84
2020/12/08 09:14:00;;;;;;;27.33;18.13;;;;;;;;;;5014808;28;20025;-83
2020/12/08 09:16:26;;;;;;;28.40;17.27;;;;;;;;;;5012237;28;20029;-83
2020/12/08 09:18:52;;;;;;;28.03;17.33;;;;;;;;;;5034665;28;20033;-83
2020/12/08 09:21:18;;;;;;;30.87;17.30;;;;;;;;;;5034771;28;20098;-80
2020/12/08 09:23:45;;;;;;;27.00;17.30;;;;;;;;;;5030074;28;20025;-83
2020/12/08 09:26:11;;;;;;;25.83;17.33;;;;;;;;;;5029042;28;20029;-82
2020/12/08 09:28:37;;;;;;;33.53;17.23;;;;;;;;;;5026836;28;20388;-83
2020/12/08 09:31:03;;;;;;;30.90;18.40;;;;;;;;;;5010961;28;20049;-83
2020/12/08 09:33:29;;;;;;;25.97;17.93;;;;;;;;;;5027680;28;20041;-83
2020/12/08 09:35:55;;;;;;;31.93;17.50;;;;;;;;;;5011011;28;20036;-82
2020/12/08 09:38:21;;;;;;;29.37;18.00;;;;;;;;;;5011691;28;20030;-83
2020/12/08 09:40:47;;;;;;;26.57;15.60;;;;;;;;;;5027661;28;20456;-83
2020/12/08 09:43:13;;;;;;;25.60;15.30;;;;;;;;;;5029134;28;20041;-83
2020/12/08 09:45:39;;;;;;;28.40;16.37;;;;;;;;;;5014722;28;20061;-83
2020/12/08 09:48:05;;;;;;;23.60;14.90;;;;;;;;;;5032498;28;20020;-83
2020/12/08 09:50:32;;;;;;;26.67;15.93;;;;;;;;;;5033912;28;20033;-82
2020/12/08 09:52:58;;;;;;;26.43;16.60;;;;;;;;;;5056425;28;20044;-82
2020/12/08 09:55:24;;;;;;;28.33;17.03;;;;;;;;;;5023598;28;20021;-83
2020/12/08 09:57:50;;;;;;;25.00;16.40;;;;;;;;;;5035454;28;20393;-83
2020/12/08 10:00:16;;;;;;;27.93;17.47;;;;;;;;;;5038037;28;20041;-83
2020/12/08 10:02:42;;;;;;;28.30;17.00;;;;;;;;;;5031608;28;20026;-82
2020/12/08 10:05:08;;;;;;;30.33;18.07;;;;;;;;;;5047187;28;20370;-83
2020/12/08 10:07:34;;;;;;;29.23;18.20;;;;;;;;;;5033585;28;20030;-83
2020/12/08 10:10:00;;;;;;;29.73;18.57;;;;;;;;;;5032248;28;20037;-83
2020/12/08 10:12:26;;;;;;;29.43;19.03;;;;;;;;;;5027364;28;20026;-83
2020/12/08 10:14:52;;;;;;;31.53;19.77;;;;;;;;;;5010031;28;20033;-82
2020/12/08 10:17:18;;;;;;;32.67;19.97;;;;;;;;;;5029427;28;20025;-83
2020/12/08 10:19:44;;;;;;;31.03;18.60;;;;;;;;;;5018927;28;20040;-83
2020/12/08 10:22:12;;;;;;;33.10;20.43;;;;;;;;;;5015139;28;20408;-82
2020/12/08 10:24:38;;;;;;;35.13;22.73;;;;;;;;;;5052810;28;20025;-83
2020/12/08 10:27:04;;;;;;;36.10;23.50;;;;;;;;;;5014026;28;20029;-82
2020/12/08 10:29:31;;;;;;;38.33;21.97;;;;;;;;;;5029160;28;20033;-82
2020/12/08 10:31:57;;;;;;;36.13;21.03;;;;;;;;;;5027648;28;20054;-83
2020/12/08 10:34:23;;;;;;;38.60;21.77;;;;;;;;;;5012218;28;20052;-82
2020/12/08 10:36:49;;;;;;;44.13;24.87;;;;;;;;;;5030082;28;20080;-83
2020/12/08 10:39:15;;;;;;;38.63;24.40;;;;;;;;;;5030954;28;20025;-83
2020/12/08 10:41:41;;;;;;;34.57;21.90;;;;;;;;;;5032799;28;20116;-84
2020/12/08 10:44:07;;;;;;;40.33;22.17;;;;;;;;;;5019384;28;20056;-84
2020/12/08 10:46:34;;;;;;;34.37;22.20;;;;;;;;;;5033398;28;20117;-84
2020/12/08 10:49:00;;;;;;;36.23;22.97;;;;;;;;;;5032512;28;20057;-83
2020/12/08 10:51:26;;;;;;;44.13;25.23;;;;;;;;;;5033762;28;20105;-83
2020/12/08 10:53:52;;;;;;;44.33;26.83;;;;;;;;;;5016620;28;20029;-82
2020/12/08 10:56:25;;;;;;;40.30;22.97;;;;;;;;;;5030867;28;20030;-83
2020/12/08 10:58:52;;;;;;;39.07;23.37;;;;;;;;;;5032605;28;20053;-83
2020/12/08 11:01:25;;;;;;;41.97;23.53;;;;;;;;;;5030620;28;20025;-83
2020/12/08 11:03:52;;;;;;;44.00;25.57;;;;;;;;;;5029979;28;20032;-83
2020/12/08 11:06:25;;;;;;;37.17;22.30;;;;;;;;;;5049990;28;20492;-84
2020/12/08 11:08:51;;;;;;;35.07;21.40;;;;;;;;;;5034664;28;20040;-84
2020/12/08 11:11:35;;;;;;;37.47;21.10;;;;;;;;;;5052268;28;20037;-84
2020/12/08 11:14:01;;;;;;;34.93;21.43;;;;;;;;;;5017454;28;20029;-84
2020/12/08 11:16:28;;;;;;;35.60;21.10;;;;;;;;;;5031377;28;20036;-84
2020/12/08 11:18:54;;;;;;;41.63;22.17;;;;;;;;;;5028806;28;20061;-82
2020/12/08 11:21:24;;;;;;;33.07;21.33;;;;;;;;;;5027665;28;20044;-83
2020/12/08 11:23:50;;;;;;;33.77;20.00;;;;;;;;;;5046779;28;20029;-83
2020/12/08 11:26:16;;;;;;;31.03;19.70;;;;;;;;;;5029437;28;20061;-83
2020/12/08 11:28:42;;;;;;;35.07;22.47;;;;;;;;;;5027629;28;20035;-83
2020/12/08 11:31:08;;;;;;;34.30;23.03;;;;;;;;;;5031867;28;20030;-83
2020/12/08 11:33:34;;;;;;;36.83;23.80;;;;;;;;;;5032232;28;20053;-84
2020/12/08 11:36:00;;;;;;;42.73;25.47;;;;;;;;;;5052587;28;20033;-84
2020/12/08 11:38:27;;;;;;;37.17;22.10;;;;;;;;;;5051303;28;20029;-83
2020/12/08 11:40:53;;;;;;;34.13;21.60;;;;;;;;;;5011891;28;20096;-83
2020/12/08 11:43:19;;;;;;;28.93;18.63;;;;;;;;;;5029394;28;20360;-83
2020/12/08 11:45:46;;;;;;;32.03;19.63;;;;;;;;;;5030754;28;20025;-83
2020/12/08 11:48:12;;;;;;;33.03;21.23;;;;;;;;;;5032083;28;20025;-83
2020/12/08 11:50:38;;;;;;;34.47;22.57;;;;;;;;;;5031601;28;20044;-84
2020/12/08 11:53:04;;;;;;;33.87;21.43;;;;;;;;;;5029137;28;20477;-83
2020/12/08 11:55:30;;;;;;;34.13;21.13;;;;;;;;;;5030220;28;20025;-83
2020/12/08 11:57:56;;;;;;;34.97;21.87;;;;;;;;;;5016689;28;20029;-84
2020/12/08 12:00:22;;;;;;;33.07;22.27;;;;;;;;;;5037076;28;20030;-85
2020/12/08 12:02:48;;;;;;;36.87;23.80;;;;;;;;;;5054625;28;20087;-85
2020/12/08 12:05:14;;;;;;;32.53;23.20;;;;;;;;;;5056810;28;20060;-84
2020/12/08 12:07:40;;;;;;;33.73;22.87;;;;;;;;;;5037054;28;20029;-84
2020/12/08 12:10:06;;;;;;;31.00;20.73;;;;;;;;;;5021153;28;20075;-84
2020/12/08 12:12:32;;;;;;;32.03;21.63;;;;;;;;;;5048450;28;20029;-83
2020/12/08 12:14:58;;;;;;;33.80;22.03;;;;;;;;;;5016695;28;20033;-83
2020/12/08 12:17:24;;;;;;;32.77;22.07;;;;;;;;;;5019571;28;20041;-83
2020/12/08 12:19:50;;;;;;;29.87;20.17;;;;;;;;;;5055822;28;20469;-84
2020/12/08 12:22:16;;;;;;;32.53;21.13;;;;;;;;;;5021347;28;20089;-83
2020/12/08 12:24:42;;;;;;;30.20;19.77;;;;;;;;;;5031643;28;20041;-84
2020/12/08 12:27:08;;;;;;;32.53;21.60;;;;;;;;;;5035962;28;20049;-84
2020/12/08 12:29:34;;;;;;;37.40;23.33;;;;;;;;;;5038215;28;20040;-84
2020/12/08 12:32:00;;;;;;;31.30;21.90;;;;;;;;;;5013125;28;20064;-84
2020/12/08 12:34:26;;;;;;;31.10;19.73;;;;;;;;;;5017696;28;20041;-84
2020/12/08 12:36:52;;;;;;;30.67;21.83;;;;;;;;;;5030449;28;20034;-82
2020/12/08 12:39:18;;;;;;;32.33;20.03;;;;;;;;;;5026694;28;20030;-84
2020/12/08 12:41:44;;;;;;;30.37;21.60;;;;;;;;;;5030465;28;20044;-83
2020/12/08 12:44:10;;;;;;;30.40;21.23;;;;;;;;;;5031155;28;20025;-84
2020/12/08 12:46:37;;;;;;;34.67;22.03;;;;;;;;;;5031620;28;20022;-83
2020/12/08 12:49:03;;;;;;;27.77;19.97;;;;;;;;;;5012008;28;20034;-84
2020/12/08 12:51:32;;;;;;;26.73;17.87;;;;;;;;;;5028206;28;20133;-83
2020/12/08 12:53:59;;;;;;;28.87;20.03;;;;;;;;;;5025540;28;20400;-82
2020/12/08 12:56:26;;;;;;;29.83;20.17;;;;;;;;;;5025975;28;20026;-82
2020/12/08 12:58:52;;;;;;;30.23;21.30;;;;;;;;;;5024669;28;20037;-83
2020/12/08 13:01:19;;;;;;;30.73;21.97;;;;;;;;;;5012650;28;20057;-84
2020/12/08 13:03:45;;;;;;;33.30;21.83;;;;;;;;;;5030712;28;20470;-84
2020/12/08 13:06:11;;;;;;;32.07;21.70;;;;;;;;;;5033494;28;20013;-84
2020/12/08 13:08:37;;;;;;;30.07;20.40;;;;;;;;;;5035699;28;20049;-83
2020/12/08 13:11:06;;;;;;;31.13;21.50;;;;;;;;;;5036555;28;20076;-84
2020/12/08 13:13:32;;;;;;;27.33;20.20;;;;;;;;;;5036122;28;20022;-83
2020/12/08 13:15:58;;;;;;;28.97;20.43;;;;;;;;;;5035150;28;20030;-84
2020/12/08 13:18:24;;;;;;;31.63;20.30;;;;;;;;;;5035882;28;20118;-83
2020/12/08 13:20:50;;;;;;;27.20;17.87;;;;;;;;;;5016256;28;20040;-83
2020/12/08 13:23:16;;;;;;;36.33;21.47;;;;;;;;;;5027145;28;20029;-84
2020/12/08 13:25:42;;;;;;;30.60;20.90;;;;;;;;;;5033080;28;20029;-84
2020/12/08 13:28:08;;;;;;;30.43;20.27;;;;;;;;;;5032892;28;20094;-84
2020/12/08 13:30:34;;;;;;;30.03;21.23;;;;;;;;;;5031660;28;20029;-82
2020/12/08 13:33:00;;;;;;;30.23;21.47;;;;;;;;;;5034996;28;20054;-84
2020/12/08 13:35:26;;;;;;;30.70;21.27;;;;;;;;;;5029220;28;20033;-85
2020/12/08 13:37:52;;;;;;;32.37;21.80;;;;;;;;;;5033892;28;20108;-85
2020/12/08 13:40:19;;;;;;;30.47;19.20;;;;;;;;;;5032307;28;20064;-85
2020/12/08 13:42:46;;;;;;;32.13;20.57;;;;;;;;;;5033085;28;20040;-86
2020/12/08 13:45:12;;;;;;;30.50;21.83;;;;;;;;;;5017983;28;20033;-85
2020/12/08 13:47:38;;;;;;;31.30;22.73;;;;;;;;;;5034355;28;20081;-85
2020/12/08 13:50:06;;;;;;;33.00;22.03;;;;;;;;;;5035625;28;20030;-85
2020/12/08 13:52:32;;;;;;;34.13;20.33;;;;;;;;;;5038407;28;20021;-85
2020/12/08 13:54:58;;;;;;;29.80;21.50;;;;;;;;;;5040224;28;20026;-84
2020/12/08 13:57:25;;;;;;;31.37;22.03;;;;;;;;;;5023638;28;20014;-84
2020/12/08 13:59:51;;;;;;;32.67;21.17;;;;;;;;;;5041421;28;20034;-86
2020/12/08 14:02:18;;;;;;;33.07;21.33;;;;;;;;;;5040517;28;20010;-84
2020/12/08 14:04:44;;;;;;;31.10;21.77;;;;;;;;;;5041625;28;20022;-87
2020/12/08 14:07:10;;;;;;;39.33;22.70;;;;;;;;;;5041092;28;20098;-85
2020/12/08 14:09:36;;;;;;;33.00;22.40;;;;;;;;;;5040781;28;20029;-83
2020/12/08 14:12:02;;;;;;;32.97;23.87;;;;;;;;;;5040435;28;20030;-86